createdAt,value
2022-12-01T00:02:17.387Z,11.07
2022-12-01T00:04:43.834Z,11.43
2022-12-01T00:07:10.848Z,11.77
2022-12-01T00:09:56.077Z,11.73
2022-12-01T00:12:22.596Z,12.17
2022-12-01T00:14:54.823Z,11.37
2022-12-01T00:17:21.779Z,12.00
2022-12-01T00:19:48.392Z,12.53
2022-12-01T00:22:15.050Z,10.70
2022-12-01T00:24:41.467Z,11.30
2022-12-01T00:27:07.918Z,11.47
2022-12-01T00:29:34.368Z,10.80
2022-12-01T00:32:00.817Z,10.00
2022-12-01T00:34:28.082Z,9.73
2022-12-01T00:36:54.518Z,14.60
2022-12-01T00:39:20.991Z,9.97
2022-12-01T00:41:47.467Z,11.10
2022-12-01T00:44:13.884Z,9.30
2022-12-01T00:46:40.385Z,10.93
2022-12-01T00:49:06.804Z,11.90
2022-12-01T00:51:33.290Z,12.63
2022-12-01T00:53:59.781Z,11.27
2022-12-01T00:56:26.405Z,12.13
2022-12-01T00:58:52.837Z,13.40
2022-12-01T01:01:19.466Z,13.00
2022-12-01T01:03:45.965Z,12.70
2022-12-01T01:06:12.682Z,12.67
2022-12-01T01:08:39.809Z,13.63
2022-12-01T01:11:07.069Z,13.80
2022-12-01T01:13:33.641Z,15.80
2022-12-01T01:16:01.583Z,14.80
2022-12-01T01:18:28.479Z,14.67
2022-12-01T01:20:56.521Z,14.47
2022-12-01T01:23:22.983Z,15.90
2022-12-01T01:25:49.566Z,14.77
2022-12-01T01:28:16.111Z,15.43
2022-12-01T01:30:42.560Z,16.13
2022-12-01T01:33:08.976Z,16.50
2022-12-01T01:35:35.393Z,15.03
2022-12-01T01:38:01.869Z,16.20
2022-12-01T01:40:28.329Z,16.07
2022-12-01T01:42:54.787Z,15.37
2022-12-01T01:45:22.867Z,16.27
2022-12-01T01:47:50.153Z,15.50
2022-12-01T01:50:19.057Z,16.07
2022-12-01T01:52:47.900Z,16.23
2022-12-01T01:55:14.597Z,15.57
2022-12-01T01:57:41.538Z,16.97
2022-12-01T02:00:26.561Z,17.37
2022-12-01T02:02:53.388Z,18.27
2022-12-01T02:05:24.259Z,17.67
2022-12-01T02:07:51.958Z,16.52
2022-12-01T02:10:22.606Z,17.20
2022-12-01T02:12:51.893Z,16.38
2022-12-01T02:15:27.588Z,17.77
2022-12-01T02:18:12.867Z,15.77
2022-12-01T02:20:57.966Z,17.17
2022-12-01T02:23:42.509Z,16.63
2022-12-01T02:26:16.223Z,17.10
2022-12-01T02:29:01.865Z,15.20
2022-12-01T02:31:44.273Z,17.53
2022-12-01T02:34:17.521Z,16.17
2022-12-01T02:36:49.101Z,16.10
2022-12-01T02:39:33.537Z,15.67
2022-12-01T02:42:48.040Z,18.43
2022-12-01T02:45:17.102Z,16.93
2022-12-01T02:47:44.464Z,17.47
2022-12-01T02:50:11.458Z,15.93
2022-12-01T02:52:39.772Z,17.23
2022-12-01T02:55:06.306Z,18.80
2022-12-01T02:57:32.698Z,18.53
2022-12-01T02:59:59.707Z,15.80
2022-12-01T03:02:42.636Z,15.77
2022-12-01T03:05:09.595Z,17.57
2022-12-01T03:07:36.336Z,18.53
2022-12-01T03:10:16.572Z,16.40
2022-12-01T03:13:01.867Z,17.00
2022-12-01T03:15:40.518Z,18.30
2022-12-01T03:18:10.322Z,20.63
2022-12-01T03:20:36.760Z,17.10
2022-12-01T03:23:09.663Z,18.57
2022-12-01T03:25:37.275Z,18.53
2022-12-01T03:28:22.211Z,17.53
2022-12-01T03:30:52.495Z,16.50
2022-12-01T03:33:24.999Z,18.97
2022-12-01T03:35:54.006Z,16.80
2022-12-01T03:38:24.825Z,17.10
2022-12-01T03:40:52.926Z,16.77
2022-12-01T03:43:21.557Z,18.80
2022-12-01T03:46:07.199Z,16.47
2022-12-01T03:48:34.010Z,15.70
2022-12-01T03:51:19.297Z,17.23
2022-12-01T03:54:00.912Z,15.43
2022-12-01T03:56:30.709Z,18.27
2022-12-01T03:58:58.125Z,14.70
2022-12-01T04:01:26.536Z,15.83
2022-12-01T04:03:53.013Z,18.70
2022-12-01T04:06:19.431Z,17.77
2022-12-01T04:08:45.861Z,16.57
2022-12-01T04:11:32.831Z,15.43
2022-12-01T04:13:59.654Z,18.13
2022-12-01T04:16:26.127Z,17.83
2022-12-01T04:18:52.582Z,15.00
2022-12-01T04:21:19.047Z,17.73
2022-12-01T04:24:01.071Z,17.33
2022-12-01T04:26:32.232Z,18.37
2022-12-01T04:29:02.184Z,18.15
2022-12-01T04:31:28.962Z,17.73
2022-12-01T04:33:56.082Z,15.70
2022-12-01T04:36:23.093Z,17.73
2022-12-01T04:38:49.486Z,18.07
2022-12-01T04:41:16.123Z,16.50
2022-12-01T04:43:42.549Z,18.70
2022-12-01T04:46:09.228Z,17.93
2022-12-01T04:48:36.402Z,18.40
2022-12-01T04:51:03.403Z,21.37
2022-12-01T04:53:29.805Z,16.23
2022-12-01T04:55:56.313Z,17.10
2022-12-01T04:58:22.688Z,18.77
2022-12-01T05:00:49.198Z,18.67
2022-12-01T05:03:15.860Z,16.57
2022-12-01T05:05:42.553Z,20.70
2022-12-01T05:08:09.004Z,16.83
2022-12-01T05:10:36.357Z,20.97
2022-12-01T05:13:03.299Z,17.80
2022-12-01T05:15:29.732Z,19.20
2022-12-01T05:17:56.224Z,19.57
2022-12-01T05:20:42.870Z,17.97
2022-12-01T05:23:15.141Z,19.60
2022-12-01T05:25:43.209Z,19.20
2022-12-01T05:28:09.922Z,20.37
2022-12-01T05:30:36.378Z,19.67
2022-12-01T05:33:03.363Z,20.50
2022-12-01T05:35:29.825Z,19.90
2022-12-01T05:37:56.261Z,22.53
2022-12-01T05:40:22.725Z,21.40
2022-12-01T05:42:49.369Z,23.67
2022-12-01T05:45:15.866Z,19.97
2022-12-01T05:47:42.279Z,26.17
2022-12-01T05:50:08.874Z,27.37
2022-12-01T05:52:35.342Z,21.40
2022-12-01T05:55:02.576Z,21.73
2022-12-01T05:57:29.077Z,22.03
2022-12-01T05:59:55.532Z,22.00
2022-12-01T06:02:21.988Z,20.73
2022-12-01T06:04:48.491Z,23.57
2022-12-01T06:07:14.869Z,23.50
2022-12-01T06:09:41.387Z,24.07
2022-12-01T06:12:07.909Z,25.00
2022-12-01T06:14:34.269Z,22.67
2022-12-01T06:17:00.846Z,24.10
2022-12-01T06:19:27.294Z,23.13
2022-12-01T06:21:53.674Z,23.47
2022-12-01T06:24:20.187Z,23.27
2022-12-01T06:26:46.774Z,20.20
2022-12-01T06:29:13.187Z,22.03
2022-12-01T06:31:39.660Z,24.97
2022-12-01T06:34:06.286Z,25.57
2022-12-01T06:36:32.652Z,23.33
2022-12-01T06:39:00.261Z,24.10
2022-12-01T06:41:26.743Z,23.40
2022-12-01T06:43:53.321Z,21.60
2022-12-01T06:46:19.858Z,25.57
2022-12-01T06:48:48.197Z,24.33
2022-12-01T06:51:14.678Z,21.87
2022-12-01T06:53:41.387Z,23.50
2022-12-01T06:56:07.991Z,25.17
2022-12-01T06:58:34.815Z,23.60
2022-12-01T07:01:07.214Z,27.67
2022-12-01T07:03:33.657Z,27.70
2022-12-01T07:06:00.728Z,22.47
2022-12-01T07:08:28.482Z,25.57
2022-12-01T07:11:02.371Z,24.17
2022-12-01T07:13:33.313Z,25.53
2022-12-01T07:16:01.200Z,22.93
2022-12-01T07:18:27.772Z,26.97
2022-12-01T07:20:54.258Z,26.80
2022-12-01T07:23:21.462Z,25.57
2022-12-01T07:25:47.826Z,30.33
2022-12-01T07:28:14.206Z,26.33
2022-12-01T07:30:40.817Z,28.17
2022-12-01T07:33:07.570Z,25.63
2022-12-01T07:35:34.128Z,29.07
2022-12-01T07:38:00.572Z,28.77
2022-12-01T07:40:27.051Z,27.67
2022-12-01T07:42:53.517Z,31.13
2022-12-01T07:45:19.913Z,30.67
2022-12-01T07:47:46.569Z,28.43
2022-12-01T07:50:13.179Z,30.53
2022-12-01T07:52:39.620Z,32.07
2022-12-01T07:55:06.306Z,27.00
2022-12-01T07:57:32.694Z,24.50
2022-12-01T07:59:59.133Z,24.13
2022-12-01T08:02:25.827Z,27.23
2022-12-01T08:04:52.421Z,27.20
2022-12-01T08:07:18.901Z,79.03
2022-12-01T08:09:45.714Z,48.80
2022-12-01T08:12:12.148Z,27.77
2022-12-01T08:14:38.592Z,28.80
2022-12-01T08:17:05.127Z,33.20
2022-12-01T08:19:31.584Z,25.07
2022-12-01T08:21:58.122Z,25.30
2022-12-01T08:24:25.837Z,27.40
2022-12-01T08:26:52.256Z,25.10
2022-12-01T08:29:20.293Z,23.90
2022-12-01T08:31:47.474Z,25.20
2022-12-01T08:34:13.981Z,22.97
2022-12-01T08:36:40.429Z,24.13
2022-12-01T08:39:07.892Z,23.37
2022-12-01T08:41:34.670Z,23.33
2022-12-01T08:44:01.658Z,22.57
2022-12-01T08:46:31.303Z,26.90
2022-12-01T08:48:58.248Z,23.20
2022-12-01T08:51:24.800Z,21.83
2022-12-01T08:53:51.191Z,27.73
2022-12-01T08:56:21.960Z,21.13
2022-12-01T08:58:48.460Z,23.63
2022-12-01T09:01:16.231Z,23.03
2022-12-01T09:03:43.343Z,19.47
2022-12-01T09:06:09.747Z,23.00
2022-12-01T09:08:36.523Z,23.77
2022-12-01T09:11:04.957Z,22.10
2022-12-01T09:13:32.370Z,23.13
2022-12-01T09:16:00.109Z,24.17
2022-12-01T09:18:26.901Z,23.20
2022-12-01T09:20:53.797Z,23.70
2022-12-01T09:23:20.455Z,21.20
2022-12-01T09:25:46.956Z,21.80
2022-12-01T09:28:13.585Z,24.30
2022-12-01T09:30:40.054Z,20.77
2022-12-01T09:33:06.612Z,22.63
2022-12-01T09:35:33.028Z,23.60
2022-12-01T09:37:59.416Z,21.87
2022-12-01T09:40:28.502Z,20.47
2022-12-01T09:42:55.119Z,24.27
2022-12-01T09:45:32.632Z,20.27
2022-12-01T09:48:00.712Z,23.60
2022-12-01T09:50:29.979Z,21.07
2022-12-01T09:53:06.291Z,22.90
2022-12-01T09:55:33.762Z,19.97
2022-12-01T09:58:01.371Z,23.93
2022-12-01T10:00:32.676Z,21.03
2022-12-01T10:03:04.139Z,20.93
2022-12-01T10:08:16.968Z,21.80
2022-12-01T10:10:45.912Z,22.07
2022-12-01T10:13:18.067Z,20.57
2022-12-01T10:15:53.657Z,20.37
2022-12-01T10:18:38.861Z,21.93
2022-12-01T10:21:11.258Z,21.37
2022-12-01T10:23:56.386Z,19.47
2022-12-01T10:26:35.187Z,18.80
2022-12-01T10:29:10.809Z,22.73
2022-12-01T10:31:37.394Z,21.70
2022-12-01T10:34:10.671Z,22.30
2022-12-01T10:36:37.118Z,21.70
2022-12-01T10:39:07.097Z,20.93
2022-12-01T10:41:35.368Z,22.07
2022-12-01T10:44:03.594Z,19.50
2022-12-01T10:46:35.165Z,20.40
2022-12-01T10:49:08.032Z,21.00
2022-12-01T10:51:45.911Z,20.97
2022-12-01T10:54:12.489Z,17.93
2022-12-01T10:56:40.723Z,19.23
2022-12-01T10:59:21.273Z,19.33
2022-12-01T11:01:48.230Z,19.20
2022-12-01T11:04:30.162Z,22.27
2022-12-01T11:06:57.016Z,20.60
2022-12-01T11:09:30.457Z,20.93
2022-12-01T11:11:58.451Z,20.40
2022-12-01T11:14:31.099Z,18.57
2022-12-01T11:17:13.807Z,19.33
2022-12-01T11:19:40.295Z,19.17
2022-12-01T11:22:19.531Z,17.43
2022-12-01T11:24:55.072Z,19.30
2022-12-01T11:27:26.008Z,18.90
2022-12-01T11:29:55.013Z,20.45
2022-12-01T11:32:23.015Z,20.03
2022-12-01T11:34:52.372Z,17.43
2022-12-01T11:37:20.328Z,19.17
2022-12-01T11:39:48.486Z,19.87
2022-12-01T11:42:15.227Z,19.27
2022-12-01T11:44:51.726Z,17.60
2022-12-01T11:47:24.655Z,21.47
2022-12-01T11:49:53.360Z,22.30
2022-12-01T11:52:24.193Z,19.20
2022-12-01T11:54:58.336Z,21.00
2022-12-01T11:58:12.651Z,19.90
2022-12-01T12:00:13.846Z,18.70
2022-12-01T12:02:55.380Z,20.90
2022-12-01T12:05:40.462Z,23.77
2022-12-01T12:08:16.257Z,18.40
2022-12-01T12:10:55.860Z,20.73
2022-12-01T12:13:31.090Z,21.27
2022-12-01T12:15:57.518Z,21.10
2022-12-01T12:18:49.433Z,18.93
2022-12-01T12:21:38.267Z,19.77
2022-12-01T12:24:14.744Z,17.73
2022-12-01T12:26:50.877Z,18.80
2022-12-01T12:29:23.252Z,19.30
2022-12-01T12:31:58.757Z,19.20
2022-12-01T12:34:47.300Z,19.03
2022-12-01T12:37:24.162Z,19.50
2022-12-01T12:39:50.891Z,18.37
2022-12-01T12:42:23.629Z,18.73
2022-12-01T12:44:57.273Z,19.00
2022-12-01T12:47:35.724Z,20.87
2022-12-01T12:50:02.140Z,20.00
2022-12-01T12:52:37.257Z,21.07
2022-12-01T12:55:11.218Z,16.73
2022-12-01T12:57:43.385Z,18.37
2022-12-01T13:00:20.920Z,17.70
2022-12-01T13:02:56.264Z,19.10
2022-12-01T13:05:29.730Z,17.50
2022-12-01T13:07:59.758Z,19.57
2022-12-01T13:10:26.619Z,17.87
2022-12-01T13:12:56.431Z,18.57
2022-12-01T13:15:23.066Z,20.13
2022-12-01T13:17:54.704Z,17.97
2022-12-01T13:20:24.859Z,17.63
2022-12-01T13:22:52.547Z,16.77
2022-12-01T13:25:27.691Z,18.33
2022-12-01T13:27:54.982Z,16.63
2022-12-01T13:30:23.065Z,23.60
2022-12-01T13:32:49.826Z,17.83
2022-12-01T13:35:26.934Z,19.00
2022-12-01T13:37:54.044Z,17.13
2022-12-01T13:40:25.461Z,17.43
2022-12-01T13:42:58.360Z,14.87
2022-12-01T13:45:24.863Z,13.97
2022-12-01T13:47:55.792Z,17.17
2022-12-01T13:50:39.077Z,17.77
2022-12-01T13:53:13.158Z,17.00
2022-12-01T13:55:59.878Z,19.07
2022-12-01T13:58:26.334Z,19.93
2022-12-01T14:00:52.882Z,17.10
2022-12-01T14:03:19.475Z,18.27
2022-12-01T14:05:49.336Z,18.00
2022-12-01T14:08:23.341Z,18.57
2022-12-01T14:10:54.615Z,18.43
2022-12-01T14:13:22.378Z,17.00
2022-12-01T14:15:53.823Z,14.87
2022-12-01T14:20:47.913Z,16.97
2022-12-01T14:23:24.280Z,14.73
2022-12-01T14:26:03.753Z,16.33
2022-12-01T14:28:49.099Z,14.90
2022-12-01T14:31:15.921Z,21.13
2022-12-01T14:33:44.823Z,15.27
2022-12-01T14:36:23.459Z,14.97
2022-12-01T14:38:52.187Z,16.20
2022-12-01T14:41:34.251Z,13.60
2022-12-01T14:44:06.549Z,14.43
2022-12-01T14:46:51.914Z,15.23
2022-12-01T14:49:26.183Z,15.87
2022-12-01T14:51:56.155Z,14.83
2022-12-01T14:54:26.066Z,15.40
2022-12-01T14:56:53.963Z,16.17
2022-12-01T14:59:26.189Z,17.70
2022-12-01T15:01:54.916Z,14.23
2022-12-01T15:04:21.502Z,17.70
2022-12-01T15:06:53.184Z,15.43
2022-12-01T15:09:36.369Z,14.77
2022-12-01T15:12:06.823Z,14.87
2022-12-01T15:14:35.047Z,20.37
2022-12-01T15:17:03.602Z,14.27
2022-12-01T15:19:31.739Z,15.67
2022-12-01T15:21:58.902Z,17.00
2022-12-01T15:24:26.410Z,16.20
2022-12-01T15:26:56.797Z,12.63
2022-12-01T15:29:28.258Z,13.53
2022-12-01T15:31:59.827Z,16.87
2022-12-01T15:34:26.278Z,14.20
2022-12-01T15:36:53.402Z,17.73
2022-12-01T15:39:21.459Z,18.77
2022-12-01T15:41:48.661Z,19.60
2022-12-01T15:44:20.158Z,15.90
2022-12-01T15:46:46.985Z,17.97
2022-12-01T15:49:20.343Z,16.00
2022-12-01T15:51:48.193Z,17.33
2022-12-01T15:54:32.491Z,17.73
2022-12-01T15:56:59.636Z,18.67
2022-12-01T15:59:26.013Z,18.67
2022-12-01T16:01:52.706Z,18.30
2022-12-01T16:04:20.648Z,19.20
2022-12-01T16:06:56.025Z,18.50
2022-12-01T16:09:34.517Z,20.20
2022-12-01T16:12:07.049Z,20.37
2022-12-01T16:14:34.101Z,18.70
2022-12-01T16:17:00.733Z,16.97
2022-12-01T16:19:29.115Z,18.57
2022-12-01T16:22:05.053Z,18.07
2022-12-01T16:24:31.563Z,20.13
2022-12-01T16:27:27.148Z,23.13
2022-12-01T16:29:55.944Z,17.27
2022-12-01T16:32:23.769Z,23.43
2022-12-01T16:34:51.364Z,20.83
2022-12-01T16:37:18.025Z,20.03
2022-12-01T16:39:44.515Z,22.27
2022-12-01T16:42:12.146Z,21.87
2022-12-01T16:44:38.653Z,21.20
2022-12-01T16:47:10.217Z,18.63
2022-12-01T16:49:36.603Z,22.77
2022-12-01T16:52:21.989Z,19.03
2022-12-01T16:54:50.273Z,20.23
2022-12-01T16:57:17.350Z,22.30
2022-12-01T16:59:44.111Z,22.93
2022-12-01T17:02:11.392Z,20.30
2022-12-01T17:04:37.852Z,21.80
2022-12-01T17:07:04.295Z,22.03
2022-12-01T17:09:30.743Z,18.13
2022-12-01T17:11:57.251Z,21.10
2022-12-01T17:14:24.027Z,20.60
2022-12-01T17:16:50.469Z,22.57
2022-12-01T17:19:17.586Z,21.50
2022-12-01T17:21:44.262Z,21.07
2022-12-01T17:24:10.653Z,22.50
2022-12-01T17:26:37.133Z,20.70
2022-12-01T17:29:03.943Z,22.43
2022-12-01T17:31:30.443Z,18.90
2022-12-01T17:33:57.165Z,19.77
2022-12-01T17:36:23.593Z,18.10
2022-12-01T17:38:50.539Z,16.23
2022-12-01T17:41:18.287Z,18.63
2022-12-01T17:43:44.782Z,19.80
2022-12-01T17:46:12.085Z,21.77
2022-12-01T17:48:39.726Z,20.13
2022-12-01T17:51:06.836Z,21.97
2022-12-01T17:53:33.388Z,21.67
2022-12-01T17:55:59.886Z,21.77
2022-12-01T17:58:26.719Z,22.40
2022-12-01T18:00:53.535Z,21.87
2022-12-01T18:03:20.404Z,22.27
2022-12-01T18:05:54.392Z,22.47
2022-12-01T18:08:21.032Z,21.57
2022-12-01T18:10:47.716Z,21.83
2022-12-01T18:13:14.125Z,24.43
2022-12-01T18:15:40.629Z,24.30
2022-12-01T18:18:07.150Z,21.07
2022-12-01T18:20:33.767Z,19.90
2022-12-01T18:23:00.237Z,22.57
2022-12-01T18:25:26.927Z,25.40
2022-12-01T18:27:58.315Z,22.33
2022-12-01T18:30:24.792Z,19.10
2022-12-01T18:32:51.259Z,23.90
2022-12-01T18:35:17.751Z,20.83
2022-12-01T18:37:44.264Z,20.97
2022-12-01T18:40:11.182Z,21.13
2022-12-01T18:42:37.681Z,24.23
2022-12-01T18:45:04.243Z,25.03
2022-12-01T18:47:30.737Z,21.70
2022-12-01T18:49:57.193Z,20.57
2022-12-01T18:52:23.647Z,20.10
2022-12-01T18:54:50.571Z,21.53
2022-12-01T18:57:19.018Z,20.30
2022-12-01T18:59:45.701Z,22.23
2022-12-01T19:02:12.163Z,23.93
2022-12-01T19:04:38.678Z,24.03
2022-12-01T19:07:05.117Z,22.23
2022-12-01T19:09:31.533Z,21.17
2022-12-01T19:11:59.760Z,26.37
2022-12-01T19:14:30.031Z,21.67
2022-12-01T19:16:56.709Z,23.13
2022-12-01T19:19:23.253Z,22.77
2022-12-01T19:21:50.434Z,22.47
2022-12-01T19:24:17.124Z,31.07
2022-12-01T19:26:43.602Z,24.83
2022-12-01T19:29:10.006Z,32.73
2022-12-01T19:31:36.488Z,33.60
2022-12-01T19:34:04.222Z,33.47
2022-12-01T19:36:30.813Z,35.47
2022-12-01T19:38:57.971Z,24.10
2022-12-01T19:41:25.336Z,27.17
2022-12-01T19:43:52.636Z,24.43
2022-12-01T19:46:23.670Z,24.63
2022-12-01T19:48:54.438Z,22.40
2022-12-01T19:51:22.425Z,23.23
2022-12-01T19:53:48.970Z,23.90
2022-12-01T19:56:15.458Z,24.00
2022-12-01T19:58:42.093Z,26.30
2022-12-01T20:01:10.119Z,23.33
2022-12-01T20:03:37.740Z,21.60
2022-12-01T20:06:05.172Z,21.17
2022-12-01T20:08:35.491Z,27.60
2022-12-01T20:11:03.561Z,23.70
2022-12-01T20:13:33.933Z,22.87
2022-12-01T20:16:01.185Z,23.97
2022-12-01T20:18:28.006Z,22.83
2022-12-01T20:21:03.660Z,22.97
2022-12-01T20:23:30.157Z,29.33
2022-12-01T20:26:00.273Z,25.33
2022-12-01T20:28:26.639Z,25.87
2022-12-01T20:30:53.131Z,22.20
2022-12-01T20:33:19.700Z,22.70
2022-12-01T20:35:46.196Z,24.27
2022-12-01T20:38:12.587Z,23.87
2022-12-01T20:40:38.970Z,22.63
2022-12-01T20:43:05.384Z,22.00
2022-12-01T20:45:31.839Z,24.93
2022-12-01T20:47:58.326Z,24.20
2022-12-01T20:50:24.841Z,22.53
2022-12-01T20:52:51.276Z,26.57
2022-12-01T20:55:18.051Z,24.60
2022-12-01T20:57:44.462Z,23.50
2022-12-01T21:00:13.207Z,26.03
2022-12-01T21:02:40.176Z,22.17
2022-12-01T21:05:06.758Z,22.37
2022-12-01T21:07:33.234Z,24.30
2022-12-01T21:09:59.721Z,30.60
2022-12-01T21:12:47.140Z,21.63
2022-12-01T21:15:20.694Z,22.73
2022-12-01T21:17:49.885Z,25.07
2022-12-01T21:20:25.156Z,23.93
2022-12-01T21:22:53.203Z,21.83
2022-12-01T21:25:20.915Z,26.03
2022-12-01T21:27:47.826Z,24.00
2022-12-01T21:30:18.614Z,22.13
2022-12-01T21:32:46.280Z,23.65
2022-12-01T21:35:15.745Z,22.67
2022-12-01T21:37:42.238Z,27.87
2022-12-01T21:40:19.412Z,26.23
2022-12-01T21:42:46.240Z,22.87
2022-12-01T21:45:22.197Z,25.93
2022-12-01T21:47:48.633Z,22.70
2022-12-01T21:50:22.279Z,22.87
2022-12-01T21:52:49.411Z,23.07
2022-12-01T21:55:15.816Z,24.90
2022-12-01T21:57:42.956Z,24.07
2022-12-01T22:00:28.774Z,25.97
2022-12-01T22:03:31.060Z,27.03
2022-12-01T22:06:28.110Z,26.37
2022-12-01T22:08:50.943Z,26.13
2022-12-01T22:11:24.369Z,25.53
2022-12-01T22:14:09.547Z,25.77
2022-12-01T22:16:43.818Z,26.77
2022-12-01T22:19:16.229Z,25.27
2022-12-01T22:21:46.786Z,25.53
2022-12-01T22:24:21.356Z,22.30
2022-12-01T22:26:48.967Z,27.63
2022-12-01T22:29:25.592Z,26.17
2022-12-01T22:31:53.569Z,25.60
2022-12-01T22:34:20.210Z,25.00
2022-12-01T22:36:46.574Z,29.03
2022-12-01T22:39:29.631Z,27.73
2022-12-01T22:42:06.659Z,25.13
2022-12-01T22:44:33.112Z,24.50
2022-12-01T22:47:02.657Z,26.27
2022-12-01T22:49:29.742Z,25.20
2022-12-01T22:52:01.982Z,25.57
2022-12-01T22:54:31.677Z,23.93
2022-12-01T22:57:13.781Z,30.03
2022-12-01T22:59:43.819Z,26.53
2022-12-01T23:02:31.664Z,26.00
2022-12-01T23:05:12.792Z,24.17
2022-12-01T23:07:41.550Z,27.13
2022-12-01T23:10:11.736Z,24.03
2022-12-01T23:12:38.708Z,24.33
2022-12-01T23:15:26.997Z,24.10
2022-12-01T23:17:53.728Z,24.03
2022-12-01T23:20:20.126Z,24.40
2022-12-01T23:22:52.361Z,23.53
2022-12-01T23:25:19.306Z,24.67
2022-12-01T23:27:46.752Z,25.17
2022-12-01T23:30:13.732Z,23.57
2022-12-01T23:32:40.228Z,23.13
2022-12-01T23:35:10.443Z,24.50
2022-12-01T23:37:41.283Z,22.93
2022-12-01T23:40:28.069Z,24.90
2022-12-01T23:42:54.776Z,23.60
2022-12-01T23:45:22.675Z,22.13
2022-12-01T23:47:49.694Z,24.23
2022-12-01T23:50:20.398Z,22.30
2022-12-01T23:52:46.944Z,25.83
2022-12-01T23:55:21.774Z,23.17
2022-12-01T23:57:48.347Z,24.73
